sensor_id;sensor_type;location;lat;lon;timestamp;temperature;humidity
33837;DHT22;20140;49.356;8.812;2023-07-28T00:02:03;17.40;99.90
33837;DHT22;20140;49.356;8.812;2023-07-28T00:14:35;17.30;99.90
33837;DHT22;20140;49.356;8.812;2023-07-28T00:17:01;17.30;99.90
33837;DHT22;20140;49.356;8.812;2023-07-28T00:19:26;17.30;99.90
33837;DHT22;20140;49.356;8.812;2023-07-28T00:21:52;17.30;99.90
33837;DHT22;20140;49.356;8.812;2023-07-28T00:24:18;17.30;99.90
33837;DHT22;20140;49.356;8.812;2023-07-28T00:26:44;17.30;99.90
33837;DHT22;20140;49.356;8.812;2023-07-28T00:29:10;17.30;99.90
33837;DHT22;20140;49.356;8.812;2023-07-28T00:31:35;17.40;99.90
33837;DHT22;20140;49.356;8.812;2023-07-28T00:34:02;17.40;99.90
33837;DHT22;20140;49.356;8.812;2023-07-28T00:36:28;17.40;99.90
33837;DHT22;20140;49.356;8.812;2023-07-28T00:45:20;17.30;99.90
33837;DHT22;20140;49.356;8.812;2023-07-28T00:47:46;17.30;99.90
33837;DHT22;20140;49.356;8.812;2023-07-28T00:50:12;17.30;99.90
33837;DHT22;20140;49.356;8.812;2023-07-28T00:52:38;17.40;99.90
33837;DHT22;20140;49.356;8.812;2023-07-28T00:55:05;17.40;99.90
33837;DHT22;20140;49.356;8.812;2023-07-28T00:57:30;17.40;99.90
33837;DHT22;20140;49.356;8.812;2023-07-28T00:59:56;17.50;99.90
33837;DHT22;20140;49.356;8.812;2023-07-28T01:02:22;17.40;99.90
33837;DHT22;20140;49.356;8.812;2023-07-28T01:04:48;17.40;99.90
33837;DHT22;20140;49.356;8.812;2023-07-28T01:07:22;17.40;99.90
33837;DHT22;20140;49.356;8.812;2023-07-28T01:09:54;17.40;99.90
33837;DHT22;20140;49.356;8.812;2023-07-28T01:12:24;17.40;99.90
33837;DHT22;20140;49.356;8.812;2023-07-28T01:14:49;17.40;99.90
33837;DHT22;20140;49.356;8.812;2023-07-28T01:21:00;17.40;99.90
33837;DHT22;20140;49.356;8.812;2023-07-28T01:23:34;17.30;99.90
33837;DHT22;20140;49.356;8.812;2023-07-28T01:26:06;17.30;99.90
33837;DHT22;20140;49.356;8.812;2023-07-28T01:28:34;17.30;99.90
33837;DHT22;20140;49.356;8.812;2023-07-28T01:31:02;17.40;99.90
33837;DHT22;20140;49.356;8.812;2023-07-28T01:33:28;17.30;99.90
33837;DHT22;20140;49.356;8.812;2023-07-28T01:35:53;17.30;99.90
33837;DHT22;20140;49.356;8.812;2023-07-28T01:38:19;17.30;99.90
33837;DHT22;20140;49.356;8.812;2023-07-28T01:40:46;17.20;99.90
33837;DHT22;20140;49.356;8.812;2023-07-28T01:43:12;17.20;99.90
33837;DHT22;20140;49.356;8.812;2023-07-28T01:45:38;17.20;99.90
33837;DHT22;20140;49.356;8.812;2023-07-28T01:48:04;17.30;99.90
33837;DHT22;20140;49.356;8.812;2023-07-28T01:50:29;17.30;99.90
33837;DHT22;20140;49.356;8.812;2023-07-28T01:52:55;17.30;99.90
33837;DHT22;20140;49.356;8.812;2023-07-28T01:55:21;17.30;99.90
33837;DHT22;20140;49.356;8.812;2023-07-28T01:57:54;17.20;99.90
33837;DHT22;20140;49.356;8.812;2023-07-28T02:00:20;17.30;99.90
33837;DHT22;20140;49.356;8.812;2023-07-28T02:02:47;17.30;99.90
33837;DHT22;20140;49.356;8.812;2023-07-28T02:05:12;17.30;99.90
33837;DHT22;20140;49.356;8.812;2023-07-28T02:07:38;17.30;99.90
33837;DHT22;20140;49.356;8.812;2023-07-28T02:10:03;17.30;99.90
33837;DHT22;20140;49.356;8.812;2023-07-28T02:12:29;17.30;99.90
33837;DHT22;20140;49.356;8.812;2023-07-28T02:14:57;17.20;99.90
33837;DHT22;20140;49.356;8.812;2023-07-28T02:17:22;17.30;99.90
33837;DHT22;20140;49.356;8.812;2023-07-28T02:19:48;17.20;99.90
33837;DHT22;20140;49.356;8.812;2023-07-28T02:22:13;17.30;99.90
33837;DHT22;20140;49.356;8.812;2023-07-28T02:24:39;17.20;99.90
33837;DHT22;20140;49.356;8.812;2023-07-28T02:27:05;17.30;99.90
33837;DHT22;20140;49.356;8.812;2023-07-28T02:29:30;17.30;99.90
33837;DHT22;20140;49.356;8.812;2023-07-28T02:31:56;17.20;99.90
33837;DHT22;20140;49.356;8.812;2023-07-28T02:34:21;17.20;99.90
33837;DHT22;20140;49.356;8.812;2023-07-28T02:36:47;17.30;99.90
33837;DHT22;20140;49.356;8.812;2023-07-28T02:39:13;17.20;99.90
33837;DHT22;20140;49.356;8.812;2023-07-28T02:41:38;17.30;99.90
33837;DHT22;20140;49.356;8.812;2023-07-28T02:44:04;17.30;99.90
33837;DHT22;20140;49.356;8.812;2023-07-28T02:46:30;17.30;99.90
33837;DHT22;20140;49.356;8.812;2023-07-28T02:48:55;17.20;99.90
33837;DHT22;20140;49.356;8.812;2023-07-28T02:51:20;17.20;99.90
33837;DHT22;20140;49.356;8.812;2023-07-28T02:53:46;17.20;99.90
33837;DHT22;20140;49.356;8.812;2023-07-28T02:56:11;17.20;99.90
33837;DHT22;20140;49.356;8.812;2023-07-28T02:58:37;17.20;99.90
33837;DHT22;20140;49.356;8.812;2023-07-28T03:01:03;17.20;99.90
33837;DHT22;20140;49.356;8.812;2023-07-28T03:03:28;17.20;99.90
33837;DHT22;20140;49.356;8.812;2023-07-28T03:05:53;17.20;99.90
33837;DHT22;20140;49.356;8.812;2023-07-28T03:08:20;17.10;99.90
33837;DHT22;20140;49.356;8.812;2023-07-28T03:10:45;17.20;99.90
33837;DHT22;20140;49.356;8.812;2023-07-28T03:13:11;17.20;99.90
33837;DHT22;20140;49.356;8.812;2023-07-28T03:15:37;17.20;99.90
33837;DHT22;20140;49.356;8.812;2023-07-28T03:18:02;17.20;99.90
33837;DHT22;20140;49.356;8.812;2023-07-28T03:20:30;17.20;99.90
33837;DHT22;20140;49.356;8.812;2023-07-28T03:22:56;17.20;99.90
33837;DHT22;20140;49.356;8.812;2023-07-28T03:25:21;17.20;99.90
33837;DHT22;20140;49.356;8.812;2023-07-28T03:27:47;17.20;99.90
33837;DHT22;20140;49.356;8.812;2023-07-28T03:30:13;17.20;99.90
33837;DHT22;20140;49.356;8.812;2023-07-28T03:32:39;17.20;99.90
33837;DHT22;20140;49.356;8.812;2023-07-28T03:35:05;17.20;99.90
33837;DHT22;20140;49.356;8.812;2023-07-28T03:37:32;17.20;99.90
33837;DHT22;20140;49.356;8.812;2023-07-28T03:39:57;17.20;99.90
33837;DHT22;20140;49.356;8.812;2023-07-28T03:42:23;17.30;99.90
33837;DHT22;20140;49.356;8.812;2023-07-28T03:44:48;17.20;99.90
33837;DHT22;20140;49.356;8.812;2023-07-28T03:47:14;17.20;99.90
33837;DHT22;20140;49.356;8.812;2023-07-28T03:49:42;17.20;99.90
33837;DHT22;20140;49.356;8.812;2023-07-28T03:52:07;17.20;99.90
33837;DHT22;20140;49.356;8.812;2023-07-28T03:54:33;17.20;99.90
33837;DHT22;20140;49.356;8.812;2023-07-28T03:56:58;17.30;99.90
33837;DHT22;20140;49.356;8.812;2023-07-28T03:59:24;17.30;99.90
33837;DHT22;20140;49.356;8.812;2023-07-28T04:01:49;17.30;99.90
33837;DHT22;20140;49.356;8.812;2023-07-28T04:04:15;17.30;99.90
33837;DHT22;20140;49.356;8.812;2023-07-28T04:06:46;17.30;99.90
33837;DHT22;20140;49.356;8.812;2023-07-28T04:09:13;17.30;99.90
33837;DHT22;20140;49.356;8.812;2023-07-28T04:11:39;17.30;99.90
33837;DHT22;20140;49.356;8.812;2023-07-28T04:14:05;17.30;99.90
33837;DHT22;20140;49.356;8.812;2023-07-28T04:16:30;17.30;99.90
33837;DHT22;20140;49.356;8.812;2023-07-28T04:18:56;17.30;99.90
33837;DHT22;20140;49.356;8.812;2023-07-28T04:21:22;17.30;99.90
33837;DHT22;20140;49.356;8.812;2023-07-28T04:23:48;17.40;99.90
33837;DHT22;20140;49.356;8.812;2023-07-28T04:26:13;17.40;99.90
33837;DHT22;20140;49.356;8.812;2023-07-28T04:28:39;17.30;99.90
33837;DHT22;20140;49.356;8.812;2023-07-28T04:31:05;17.40;99.90
33837;DHT22;20140;49.356;8.812;2023-07-28T04:33:30;17.40;99.90
33837;DHT22;20140;49.356;8.812;2023-07-28T04:35:56;17.30;99.90
33837;DHT22;20140;49.356;8.812;2023-07-28T04:38:21;17.40;99.90
33837;DHT22;20140;49.356;8.812;2023-07-28T04:40:47;17.50;99.90
33837;DHT22;20140;49.356;8.812;2023-07-28T04:43:12;17.40;99.90
33837;DHT22;20140;49.356;8.812;2023-07-28T04:45:38;17.40;99.90
33837;DHT22;20140;49.356;8.812;2023-07-28T04:48:03;17.40;99.90
33837;DHT22;20140;49.356;8.812;2023-07-28T04:50:29;17.40;99.90
33837;DHT22;20140;49.356;8.812;2023-07-28T04:52:55;17.50;99.90
33837;DHT22;20140;49.356;8.812;2023-07-28T04:55:20;17.50;99.90
33837;DHT22;20140;49.356;8.812;2023-07-28T04:57:46;17.40;99.90
33837;DHT22;20140;49.356;8.812;2023-07-28T05:00:12;17.40;99.90
33837;DHT22;20140;49.356;8.812;2023-07-28T05:02:37;17.40;99.90
33837;DHT22;20140;49.356;8.812;2023-07-28T05:05:03;17.40;99.90
33837;DHT22;20140;49.356;8.812;2023-07-28T05:07:29;17.50;99.90
33837;DHT22;20140;49.356;8.812;2023-07-28T05:09:54;17.50;99.90
33837;DHT22;20140;49.356;8.812;2023-07-28T05:12:20;17.60;99.90
33837;DHT22;20140;49.356;8.812;2023-07-28T05:14:46;17.70;99.90
33837;DHT22;20140;49.356;8.812;2023-07-28T05:17:11;17.70;99.90
33837;DHT22;20140;49.356;8.812;2023-07-28T05:19:37;17.70;99.90
33837;DHT22;20140;49.356;8.812;2023-07-28T05:22:02;17.60;99.90
33837;DHT22;20140;49.356;8.812;2023-07-28T05:24:28;17.60;99.90
33837;DHT22;20140;49.356;8.812;2023-07-28T05:26:54;17.60;99.90
33837;DHT22;20140;49.356;8.812;2023-07-28T05:36:04;17.70;99.90
33837;DHT22;20140;49.356;8.812;2023-07-28T05:38:29;17.80;99.90
33837;DHT22;20140;49.356;8.812;2023-07-28T05:40:58;17.90;99.90
33837;DHT22;20140;49.356;8.812;2023-07-28T05:43:27;17.90;99.90
33837;DHT22;20140;49.356;8.812;2023-07-28T05:45:52;17.90;99.90
33837;DHT22;20140;49.356;8.812;2023-07-28T05:48:18;17.90;99.90
33837;DHT22;20140;49.356;8.812;2023-07-28T05:50:44;17.90;99.90
33837;DHT22;20140;49.356;8.812;2023-07-28T05:53:09;17.90;99.90
33837;DHT22;20140;49.356;8.812;2023-07-28T05:55:35;17.90;99.90
33837;DHT22;20140;49.356;8.812;2023-07-28T05:58:00;17.90;99.90
33837;DHT22;20140;49.356;8.812;2023-07-28T06:00:26;17.80;99.90
33837;DHT22;20140;49.356;8.812;2023-07-28T06:02:52;17.80;99.90
33837;DHT22;20140;49.356;8.812;2023-07-28T06:05:17;17.90;99.90
33837;DHT22;20140;49.356;8.812;2023-07-28T06:07:43;17.90;99.90
33837;DHT22;20140;49.356;8.812;2023-07-28T06:10:08;17.90;99.90
33837;DHT22;20140;49.356;8.812;2023-07-28T06:12:34;18.00;99.90
33837;DHT22;20140;49.356;8.812;2023-07-28T06:14:59;18.00;99.90
33837;DHT22;20140;49.356;8.812;2023-07-28T06:17:25;18.00;99.90
33837;DHT22;20140;49.356;8.812;2023-07-28T06:19:52;18.10;99.90
33837;DHT22;20140;49.356;8.812;2023-07-28T06:22:18;18.00;99.90
33837;DHT22;20140;49.356;8.812;2023-07-28T06:24:43;18.00;99.90
33837;DHT22;20140;49.356;8.812;2023-07-28T06:27:09;18.00;99.90
33837;DHT22;20140;49.356;8.812;2023-07-28T06:29:35;18.00;99.90
33837;DHT22;20140;49.356;8.812;2023-07-28T06:32:01;18.00;99.90
33837;DHT22;20140;49.356;8.812;2023-07-28T06:34:26;18.00;99.90
33837;DHT22;20140;49.356;8.812;2023-07-28T06:36:52;18.10;99.90
33837;DHT22;20140;49.356;8.812;2023-07-28T06:39:18;18.10;99.90
33837;DHT22;20140;49.356;8.812;2023-07-28T06:41:44;18.00;99.90
33837;DHT22;20140;49.356;8.812;2023-07-28T06:44:09;18.10;99.90
33837;DHT22;20140;49.356;8.812;2023-07-28T06:46:35;18.00;99.90
33837;DHT22;20140;49.356;8.812;2023-07-28T06:49:01;18.10;99.90
33837;DHT22;20140;49.356;8.812;2023-07-28T06:51:26;18.20;99.90
33837;DHT22;20140;49.356;8.812;2023-07-28T06:53:54;18.20;99.90
33837;DHT22;20140;49.356;8.812;2023-07-28T06:56:20;18.20;99.90
33837;DHT22;20140;49.356;8.812;2023-07-28T06:58:45;18.30;99.90
33837;DHT22;20140;49.356;8.812;2023-07-28T07:01:11;18.30;99.90
33837;DHT22;20140;49.356;8.812;2023-07-28T07:03:37;18.30;99.90
33837;DHT22;20140;49.356;8.812;2023-07-28T07:06:02;18.30;99.90
33837;DHT22;20140;49.356;8.812;2023-07-28T07:08:28;18.20;99.90
33837;DHT22;20140;49.356;8.812;2023-07-28T07:10:53;18.20;99.90
33837;DHT22;20140;49.356;8.812;2023-07-28T07:13:19;18.30;99.90
33837;DHT22;20140;49.356;8.812;2023-07-28T07:15:45;18.30;99.90
33837;DHT22;20140;49.356;8.812;2023-07-28T07:18:11;18.30;99.90
33837;DHT22;20140;49.356;8.812;2023-07-28T07:20:38;18.40;99.90
33837;DHT22;20140;49.356;8.812;2023-07-28T07:23:04;18.40;99.90
33837;DHT22;20140;49.356;8.812;2023-07-28T07:25:30;18.50;99.90
33837;DHT22;20140;49.356;8.812;2023-07-28T07:27:56;18.50;99.90
33837;DHT22;20140;49.356;8.812;2023-07-28T07:30:22;18.50;99.90
33837;DHT22;20140;49.356;8.812;2023-07-28T07:32:47;18.60;99.90
33837;DHT22;20140;49.356;8.812;2023-07-28T07:35:13;18.60;99.90
33837;DHT22;20140;49.356;8.812;2023-07-28T07:37:39;18.60;99.90
33837;DHT22;20140;49.356;8.812;2023-07-28T07:40:06;18.70;99.90
33837;DHT22;20140;49.356;8.812;2023-07-28T07:42:48;18.80;99.90
33837;DHT22;20140;49.356;8.812;2023-07-28T07:45:15;18.80;99.90
33837;DHT22;20140;49.356;8.812;2023-07-28T07:47:41;18.80;99.90
33837;DHT22;20140;49.356;8.812;2023-07-28T07:50:07;18.80;99.90
33837;DHT22;20140;49.356;8.812;2023-07-28T07:52:37;18.70;99.90
33837;DHT22;20140;49.356;8.812;2023-07-28T07:55:03;18.70;99.90
33837;DHT22;20140;49.356;8.812;2023-07-28T07:57:29;18.70;99.90
33837;DHT22;20140;49.356;8.812;2023-07-28T07:59:57;18.70;99.90
33837;DHT22;20140;49.356;8.812;2023-07-28T08:02:22;18.80;99.90
33837;DHT22;20140;49.356;8.812;2023-07-28T08:04:48;18.90;99.90
33837;DHT22;20140;49.356;8.812;2023-07-28T08:07:13;18.90;99.90
33837;DHT22;20140;49.356;8.812;2023-07-28T08:09:41;18.80;99.90
33837;DHT22;20140;49.356;8.812;2023-07-28T08:12:07;18.80;99.90
33837;DHT22;20140;49.356;8.812;2023-07-28T08:14:33;18.80;99.90
33837;DHT22;20140;49.356;8.812;2023-07-28T08:16:59;18.80;99.90
33837;DHT22;20140;49.356;8.812;2023-07-28T08:19:25;18.80;99.90
33837;DHT22;20140;49.356;8.812;2023-07-28T08:21:50;18.80;99.90
33837;DHT22;20140;49.356;8.812;2023-07-28T08:24:16;18.80;99.90
33837;DHT22;20140;49.356;8.812;2023-07-28T08:26:42;18.90;99.90
33837;DHT22;20140;49.356;8.812;2023-07-28T08:29:07;18.90;99.90
33837;DHT22;20140;49.356;8.812;2023-07-28T08:31:33;18.80;99.90
33837;DHT22;20140;49.356;8.812;2023-07-28T08:33:59;18.90;99.90
33837;DHT22;20140;49.356;8.812;2023-07-28T08:36:24;18.90;99.90
33837;DHT22;20140;49.356;8.812;2023-07-28T08:38:50;18.90;99.90
33837;DHT22;20140;49.356;8.812;2023-07-28T08:41:15;19.10;99.90
33837;DHT22;20140;49.356;8.812;2023-07-28T08:43:41;19.10;99.90
33837;DHT22;20140;49.356;8.812;2023-07-28T08:46:07;19.20;99.90
33837;DHT22;20140;49.356;8.812;2023-07-28T08:48:33;19.20;99.90
33837;DHT22;20140;49.356;8.812;2023-07-28T08:50:58;19.40;99.90
33837;DHT22;20140;49.356;8.812;2023-07-28T08:53:24;19.40;99.90
33837;DHT22;20140;49.356;8.812;2023-07-28T08:55:51;19.40;99.90
33837;DHT22;20140;49.356;8.812;2023-07-28T08:58:23;19.40;99.90
33837;DHT22;20140;49.356;8.812;2023-07-28T09:01:10;19.40;99.90
33837;DHT22;20140;49.356;8.812;2023-07-28T09:03:39;19.50;99.90
33837;DHT22;20140;49.356;8.812;2023-07-28T09:06:06;19.60;99.90
33837;DHT22;20140;49.356;8.812;2023-07-28T09:08:35;19.60;99.90
33837;DHT22;20140;49.356;8.812;2023-07-28T09:11:05;19.70;99.90
33837;DHT22;20140;49.356;8.812;2023-07-28T09:13:39;19.70;99.90
33837;DHT22;20140;49.356;8.812;2023-07-28T09:16:19;19.80;99.90
33837;DHT22;20140;49.356;8.812;2023-07-28T09:18:45;19.80;99.90
33837;DHT22;20140;49.356;8.812;2023-07-28T09:21:20;19.90;99.90
33837;DHT22;20140;49.356;8.812;2023-07-28T09:23:49;20.10;99.90
33837;DHT22;20140;49.356;8.812;2023-07-28T09:26:15;20.40;99.90
33837;DHT22;20140;49.356;8.812;2023-07-28T09:28:41;20.50;99.90
33837;DHT22;20140;49.356;8.812;2023-07-28T09:31:07;20.70;99.90
33837;DHT22;20140;49.356;8.812;2023-07-28T09:33:34;20.70;99.90
33837;DHT22;20140;49.356;8.812;2023-07-28T09:36:09;20.70;99.90
33837;DHT22;20140;49.356;8.812;2023-07-28T09:38:38;20.80;99.90
33837;DHT22;20140;49.356;8.812;2023-07-28T09:41:08;20.80;99.90
33837;DHT22;20140;49.356;8.812;2023-07-28T09:43:40;20.80;99.90
33837;DHT22;20140;49.356;8.812;2023-07-28T09:46:08;20.80;99.90
33837;DHT22;20140;49.356;8.812;2023-07-28T09:48:34;20.90;99.90
33837;DHT22;20140;49.356;8.812;2023-07-28T09:51:13;21.10;99.90
33837;DHT22;20140;49.356;8.812;2023-07-28T09:53:49;21.20;99.90
33837;DHT22;20140;49.356;8.812;2023-07-28T09:56:15;21.20;99.90
33837;DHT22;20140;49.356;8.812;2023-07-28T09:58:49;21.50;99.90
33837;DHT22;20140;49.356;8.812;2023-07-28T10:01:16;21.70;99.90
33837;DHT22;20140;49.356;8.812;2023-07-28T10:03:42;22.00;99.90
33837;DHT22;20140;49.356;8.812;2023-07-28T10:06:08;22.10;99.90
33837;DHT22;20140;49.356;8.812;2023-07-28T10:08:34;22.10;99.90
33837;DHT22;20140;49.356;8.812;2023-07-28T10:11:02;22.10;99.90
33837;DHT22;20140;49.356;8.812;2023-07-28T10:13:40;22.00;99.90
33837;DHT22;20140;49.356;8.812;2023-07-28T10:16:07;21.80;99.90
33837;DHT22;20140;49.356;8.812;2023-07-28T10:18:35;21.80;99.90
33837;DHT22;20140;49.356;8.812;2023-07-28T10:21:05;21.60;99.90
33837;DHT22;20140;49.356;8.812;2023-07-28T10:23:34;21.50;99.90
33837;DHT22;20140;49.356;8.812;2023-07-28T10:26:02;21.40;99.90
33837;DHT22;20140;49.356;8.812;2023-07-28T10:28:35;21.30;99.90
33837;DHT22;20140;49.356;8.812;2023-07-28T10:31:07;21.40;99.90
33837;DHT22;20140;49.356;8.812;2023-07-28T10:33:43;21.50;99.90
33837;DHT22;20140;49.356;8.812;2023-07-28T10:38:59;21.60;99.90
33837;DHT22;20140;49.356;8.812;2023-07-28T10:41:25;21.80;99.90
33837;DHT22;20140;49.356;8.812;2023-07-28T10:43:51;21.80;99.90
33837;DHT22;20140;49.356;8.812;2023-07-28T10:46:18;22.00;99.90
33837;DHT22;20140;49.356;8.812;2023-07-28T10:48:45;21.90;99.90
33837;DHT22;20140;49.356;8.812;2023-07-28T10:51:29;21.80;99.90
33837;DHT22;20140;49.356;8.812;2023-07-28T10:54:00;21.90;99.90
33837;DHT22;20140;49.356;8.812;2023-07-28T10:56:28;21.90;99.90
33837;DHT22;20140;49.356;8.812;2023-07-28T10:59:00;21.90;99.90
33837;DHT22;20140;49.356;8.812;2023-07-28T11:01:37;21.80;99.90
33837;DHT22;20140;49.356;8.812;2023-07-28T11:04:15;21.80;99.90
33837;DHT22;20140;49.356;8.812;2023-07-28T11:06:42;21.80;99.90
33837;DHT22;20140;49.356;8.812;2023-07-28T11:09:09;21.80;99.90
33837;DHT22;20140;49.356;8.812;2023-07-28T11:11:39;21.60;99.90
33837;DHT22;20140;49.356;8.812;2023-07-28T11:14:08;21.60;99.90
33837;DHT22;20140;49.356;8.812;2023-07-28T11:16:36;21.50;99.90
33837;DHT22;20140;49.356;8.812;2023-07-28T11:19:03;21.50;99.90
33837;DHT22;20140;49.356;8.812;2023-07-28T11:21:29;21.30;99.90
33837;DHT22;20140;49.356;8.812;2023-07-28T11:23:54;21.30;99.90
33837;DHT22;20140;49.356;8.812;2023-07-28T11:26:23;21.20;99.90
33837;DHT22;20140;49.356;8.812;2023-07-28T11:28:49;21.20;99.90
33837;DHT22;20140;49.356;8.812;2023-07-28T11:31:14;21.20;99.90
33837;DHT22;20140;49.356;8.812;2023-07-28T11:33:40;21.10;99.90
33837;DHT22;20140;49.356;8.812;2023-07-28T11:36:06;21.20;99.90
33837;DHT22;20140;49.356;8.812;2023-07-28T11:38:33;21.20;99.90
33837;DHT22;20140;49.356;8.812;2023-07-28T11:41:00;21.10;99.90
33837;DHT22;20140;49.356;8.812;2023-07-28T11:43:27;21.10;99.90
33837;DHT22;20140;49.356;8.812;2023-07-28T11:45:55;21.10;99.90
33837;DHT22;20140;49.356;8.812;2023-07-28T11:48:21;21.00;99.90
33837;DHT22;20140;49.356;8.812;2023-07-28T11:50:46;20.90;99.90
33837;DHT22;20140;49.356;8.812;2023-07-28T11:53:12;20.90;99.90
33837;DHT22;20140;49.356;8.812;2023-07-28T11:55:40;20.90;99.90
33837;DHT22;20140;49.356;8.812;2023-07-28T11:58:07;20.90;99.90
33837;DHT22;20140;49.356;8.812;2023-07-28T12:00:37;20.90;99.90
33837;DHT22;20140;49.356;8.812;2023-07-28T12:03:10;20.80;99.90
33837;DHT22;20140;49.356;8.812;2023-07-28T12:05:37;20.80;99.90
33837;DHT22;20140;49.356;8.812;2023-07-28T12:08:04;20.80;99.90
33837;DHT22;20140;49.356;8.812;2023-07-28T12:10:30;20.80;99.90
33837;DHT22;20140;49.356;8.812;2023-07-28T12:12:57;20.90;99.90
33837;DHT22;20140;49.356;8.812;2023-07-28T12:15:26;20.80;99.90
33837;DHT22;20140;49.356;8.812;2023-07-28T12:20:38;20.90;99.90
33837;DHT22;20140;49.356;8.812;2023-07-28T12:23:05;20.80;99.90
33837;DHT22;20140;49.356;8.812;2023-07-28T12:25:31;20.90;99.90
33837;DHT22;20140;49.356;8.812;2023-07-28T12:27:56;20.80;99.90
33837;DHT22;20140;49.356;8.812;2023-07-28T12:30:22;20.80;99.90
33837;DHT22;20140;49.356;8.812;2023-07-28T12:32:50;20.80;99.90
33837;DHT22;20140;49.356;8.812;2023-07-28T12:35:15;20.90;99.90
33837;DHT22;20140;49.356;8.812;2023-07-28T12:37:41;20.90;99.90
33837;DHT22;20140;49.356;8.812;2023-07-28T12:40:07;20.70;99.90
33837;DHT22;20140;49.356;8.812;2023-07-28T12:42:34;20.60;99.90
33837;DHT22;20140;49.356;8.812;2023-07-28T12:44:59;20.60;99.90
33837;DHT22;20140;49.356;8.812;2023-07-28T12:47:25;20.50;99.90
33837;DHT22;20140;49.356;8.812;2023-07-28T12:49:50;20.40;99.90
33837;DHT22;20140;49.356;8.812;2023-07-28T12:52:16;20.50;99.90
33837;DHT22;20140;49.356;8.812;2023-07-28T12:58:03;20.80;99.90
33837;DHT22;20140;49.356;8.812;2023-07-28T13:07:39;20.60;99.90
33837;DHT22;20140;49.356;8.812;2023-07-28T13:13:39;20.20;99.90
33837;DHT22;20140;49.356;8.812;2023-07-28T13:23:04;19.90;99.90
33837;DHT22;20140;49.356;8.812;2023-07-28T13:42:11;19.90;99.90
33837;DHT22;20140;49.356;8.812;2023-07-28T13:47:59;19.80;99.90
33837;DHT22;20140;49.356;8.812;2023-07-28T13:50:24;19.60;99.90
33837;DHT22;20140;49.356;8.812;2023-07-28T13:52:50;19.60;99.90
33837;DHT22;20140;49.356;8.812;2023-07-28T13:55:15;19.40;99.90
33837;DHT22;20140;49.356;8.812;2023-07-28T13:57:41;19.40;99.90
33837;DHT22;20140;49.356;8.812;2023-07-28T14:00:07;19.30;99.90
33837;DHT22;20140;49.356;8.812;2023-07-28T14:02:36;19.20;99.90
33837;DHT22;20140;49.356;8.812;2023-07-28T14:05:02;19.20;99.90
33837;DHT22;20140;49.356;8.812;2023-07-28T14:07:28;19.10;99.90
33837;DHT22;20140;49.356;8.812;2023-07-28T14:09:53;19.20;99.90
33837;DHT22;20140;49.356;8.812;2023-07-28T14:12:19;19.20;99.90
33837;DHT22;20140;49.356;8.812;2023-07-28T14:14:44;19.20;99.90
33837;DHT22;20140;49.356;8.812;2023-07-28T14:17:10;19.20;99.90
33837;DHT22;20140;49.356;8.812;2023-07-28T14:19:38;19.20;99.90
33837;DHT22;20140;49.356;8.812;2023-07-28T14:22:05;19.20;99.90
33837;DHT22;20140;49.356;8.812;2023-07-28T14:24:31;19.30;99.90
33837;DHT22;20140;49.356;8.812;2023-07-28T14:26:56;19.20;99.90
33837;DHT22;20140;49.356;8.812;2023-07-28T14:29:22;19.20;99.90
33837;DHT22;20140;49.356;8.812;2023-07-28T14:31:48;19.20;99.90
33837;DHT22;20140;49.356;8.812;2023-07-28T14:34:13;19.20;99.90
33837;DHT22;20140;49.356;8.812;2023-07-28T14:36:39;19.30;99.90
33837;DHT22;20140;49.356;8.812;2023-07-28T14:39:05;19.40;99.90
33837;DHT22;20140;49.356;8.812;2023-07-28T14:41:31;19.40;99.90
33837;DHT22;20140;49.356;8.812;2023-07-28T14:43:57;19.40;99.90
33837;DHT22;20140;49.356;8.812;2023-07-28T14:46:22;19.40;99.90
33837;DHT22;20140;49.356;8.812;2023-07-28T14:48:50;19.40;99.90
33837;DHT22;20140;49.356;8.812;2023-07-28T14:51:16;19.40;99.90
33837;DHT22;20140;49.356;8.812;2023-07-28T14:53:41;19.40;99.90
33837;DHT22;20140;49.356;8.812;2023-07-28T14:56:07;19.40;99.90
33837;DHT22;20140;49.356;8.812;2023-07-28T14:58:33;19.40;99.90
33837;DHT22;20140;49.356;8.812;2023-07-28T15:00:59;19.40;99.90
33837;DHT22;20140;49.356;8.812;2023-07-28T15:03:26;19.40;99.90
33837;DHT22;20140;49.356;8.812;2023-07-28T15:05:56;19.40;99.90
33837;DHT22;20140;49.356;8.812;2023-07-28T15:08:22;19.40;99.90
33837;DHT22;20140;49.356;8.812;2023-07-28T15:10:47;19.30;99.90
33837;DHT22;20140;49.356;8.812;2023-07-28T15:13:13;19.30;99.90
33837;DHT22;20140;49.356;8.812;2023-07-28T15:15:39;19.30;99.90
33837;DHT22;20140;49.356;8.812;2023-07-28T15:18:05;19.30;99.90
33837;DHT22;20140;49.356;8.812;2023-07-28T15:20:30;19.20;99.90
33837;DHT22;20140;49.356;8.812;2023-07-28T15:22:56;19.20;99.90
33837;DHT22;20140;49.356;8.812;2023-07-28T15:25:21;19.20;99.90
33837;DHT22;20140;49.356;8.812;2023-07-28T15:27:47;19.20;99.90
33837;DHT22;20140;49.356;8.812;2023-07-28T15:30:12;19.20;99.90
33837;DHT22;20140;49.356;8.812;2023-07-28T15:32:38;19.20;99.90
33837;DHT22;20140;49.356;8.812;2023-07-28T15:35:04;19.20;99.90
33837;DHT22;20140;49.356;8.812;2023-07-28T15:37:30;19.20;99.90
33837;DHT22;20140;49.356;8.812;2023-07-28T15:39:55;19.20;99.90
33837;DHT22;20140;49.356;8.812;2023-07-28T15:42:22;19.20;99.90
33837;DHT22;20140;49.356;8.812;2023-07-28T15:44:48;19.30;99.90
33837;DHT22;20140;49.356;8.812;2023-07-28T15:47:15;19.30;99.90
33837;DHT22;20140;49.356;8.812;2023-07-28T15:49:41;19.30;99.90
33837;DHT22;20140;49.356;8.812;2023-07-28T15:52:07;19.30;99.90
33837;DHT22;20140;49.356;8.812;2023-07-28T15:54:32;19.30;99.90
33837;DHT22;20140;49.356;8.812;2023-07-28T15:56:58;19.30;99.90
33837;DHT22;20140;49.356;8.812;2023-07-28T15:59:23;19.30;99.90
33837;DHT22;20140;49.356;8.812;2023-07-28T16:01:49;19.20;99.90
33837;DHT22;20140;49.356;8.812;2023-07-28T16:04:14;19.20;99.90
33837;DHT22;20140;49.356;8.812;2023-07-28T16:06:40;19.20;99.90
33837;DHT22;20140;49.356;8.812;2023-07-28T16:09:05;19.20;99.90
33837;DHT22;20140;49.356;8.812;2023-07-28T16:11:32;19.30;99.90
33837;DHT22;20140;49.356;8.812;2023-07-28T16:13:57;19.30;99.90
33837;DHT22;20140;49.356;8.812;2023-07-28T16:16:23;19.30;99.90
33837;DHT22;20140;49.356;8.812;2023-07-28T16:18:49;19.20;99.90
33837;DHT22;20140;49.356;8.812;2023-07-28T16:21:14;19.30;99.90
33837;DHT22;20140;49.356;8.812;2023-07-28T16:23:40;19.30;99.90
33837;DHT22;20140;49.356;8.812;2023-07-28T16:26:05;19.20;99.90
33837;DHT22;20140;49.356;8.812;2023-07-28T16:28:31;19.20;99.90
33837;DHT22;20140;49.356;8.812;2023-07-28T16:30:56;19.20;99.90
33837;DHT22;20140;49.356;8.812;2023-07-28T16:33:22;19.20;99.90
33837;DHT22;20140;49.356;8.812;2023-07-28T16:35:47;19.30;99.90
33837;DHT22;20140;49.356;8.812;2023-07-28T16:38:13;19.30;99.90
33837;DHT22;20140;49.356;8.812;2023-07-28T16:40:39;19.20;99.90